Time;durP1;ratioP1;P1;durP2;ratioP2;P2;SDS_P1;SDS_P2;PMS_P1;PMS_P2;Temp;Humidity;BMP_temperature;BMP_pressure;BME280_temperature;BME280_humidity;BME280_pressure;Samples;Min_cycle;Max_cycle;Signal;HPM_P1;HPM_P2
2022/08/29 00:00:56;;;;;;;32.58;16.20;;;;;;;-145.69;100.00;71402.41;5073063;28;20203;-75
2022/08/29 00:03:23;;;;;;;32.72;15.27;;;;;;;-145.69;100.00;71402.41;5069479;28;21974;-75
2022/08/29 00:05:50;;;;;;;29.83;15.98;;;;;;;-145.69;100.00;71406.38;5053744;28;20290;-75
2022/08/29 00:08:17;;;;;;;31.88;15.70;;;;;;;-145.69;100.00;71414.34;5053282;28;20199;-75
2022/08/29 00:10:43;;;;;;;32.20;15.75;;;;;;;-145.69;100.00;71418.31;5053268;28;20199;-76
2022/08/29 00:13:14;;;;;;;30.15;15.70;;;;;;;-145.69;100.00;71416.31;5053218;28;20203;-77
2022/08/29 00:15:41;;;;;;;35.75;16.88;;;;;;;-145.69;100.00;71422.28;5052825;28;20206;-76
2022/08/29 00:18:07;;;;;;;32.00;16.65;;;;;;;-145.69;100.00;71416.31;5071671;28;20202;-77
2022/08/29 00:20:35;;;;;;;37.22;18.10;;;;;;;-145.69;100.00;71410.34;5072706;28;20300;-76
2022/08/29 00:23:04;;;;;;;37.90;17.75;;;;;;;-145.69;100.00;71408.38;5073285;28;20198;-76
2022/08/29 00:25:31;;;;;;;36.13;20.13;;;;;;;-145.69;100.00;71400.41;5072360;28;20438;-75
2022/08/29 00:27:57;;;;;;;34.05;18.10;;;;;;;-145.69;100.00;71400.41;5073012;28;20195;-76
2022/08/29 00:30:25;;;;;;;35.90;18.30;;;;;;;-145.69;100.00;71394.44;5072753;28;20198;-76
2022/08/29 00:32:53;;;;;;;34.53;18.55;;;;;;;-145.69;100.00;71398.41;5072540;28;20237;-76
2022/08/29 00:35:22;;;;;;;32.28;16.55;;;;;;;-145.69;100.00;71414.34;5072619;28;20210;-76
2022/08/29 00:37:50;;;;;;;28.83;16.05;;;;;;;-145.69;100.00;71430.25;5073006;28;20203;-76
2022/08/29 00:40:19;;;;;;;32.20;16.65;;;;;;;-145.69;100.00;71430.25;5072867;28;20570;-75
2022/08/29 00:42:46;;;;;;;35.65;17.25;;;;;;;-145.69;100.00;71428.25;5072756;28;20203;-76
2022/08/29 00:45:15;;;;;;;36.15;16.48;;;;;;;-145.69;100.00;71432.25;5073063;28;20285;-76
2022/08/29 00:47:49;;;;;;;35.20;16.73;;;;;;;-145.69;100.00;71438.22;5072290;28;20730;-76
2022/08/29 00:50:23;;;;;;;35.50;17.35;;;;;;;-145.69;100.00;71436.22;5072822;28;20665;-76
2022/08/29 00:52:50;;;;;;;37.72;19.45;;;;;;;-145.69;100.00;71428.25;5072731;28;20229;-75
2022/08/29 00:55:21;;;;;;;44.15;20.38;;;;;;;-145.69;100.00;71412.34;5072400;28;20627;-75
2022/08/29 00:57:54;;;;;;;42.75;20.77;;;;;;;-145.69;100.00;71406.38;5072959;28;20199;-76
2022/08/29 01:00:22;;;;;;;41.83;19.15;;;;;;;-145.69;100.00;71418.31;5072284;28;20191;-75
2022/08/29 01:02:50;;;;;;;38.22;18.15;;;;;;;-145.69;100.00;71422.28;5071709;28;20206;-75
2022/08/29 01:05:18;;;;;;;36.65;17.80;;;;;;;-145.69;100.00;71448.16;5072760;28;20198;-75
2022/08/29 01:07:46;;;;;;;29.83;15.55;;;;;;;-145.69;100.00;71466.06;5072449;28;20195;-75
2022/08/29 01:12:14;;;;;;;26.25;14.95;;;;;;;-145.69;100.00;71482.00;5072760;28;20206;-75
2022/08/29 01:13:00;;;;;;;30.67;15.25;;;;;;;-145.69;100.00;71489.94;5072363;28;20226;-75
2022/08/29 01:15:29;;;;;;;32.53;14.95;;;;;;;-145.69;100.00;71497.91;5072673;28;20203;-75
2022/08/29 01:17:58;;;;;;;38.00;19.23;;;;;;;-145.69;100.00;71478.00;5072282;28;20623;-75
2022/08/29 01:20:33;;;;;;;42.85;20.55;;;;;;;-145.69;100.00;71462.09;5072341;28;20209;-76
2022/08/29 01:23:06;;;;;;;40.95;19.80;;;;;;;-145.69;100.00;71454.13;5072325;28;20202;-75
2022/08/29 01:25:38;;;;;;;35.17;18.02;;;;;;;-145.69;100.00;71462.09;5072470;28;20206;-76
2022/08/29 01:28:09;;;;;;;41.58;18.73;;;;;;;-145.69;100.00;71482.00;5072526;28;20203;-76
2022/08/29 01:30:36;;;;;;;35.33;17.95;;;;;;;-145.69;100.00;71476.03;5072242;28;20207;-76
2022/08/29 01:33:02;;;;;;;43.13;18.73;;;;;;;-145.69;100.00;71468.06;5072289;28;20223;-76
2022/08/29 01:35:29;;;;;;;44.97;19.45;;;;;;;-145.69;100.00;71470.06;5072184;28;20207;-77
2022/08/29 01:37:56;;;;;;;38.47;20.17;;;;;;;-145.69;100.00;71474.03;5074372;28;20491;-76
2022/08/29 01:40:28;;;;;;;38.60;19.65;;;;;;;-145.69;100.00;71474.03;5075758;28;20202;-76
2022/08/29 01:42:56;;;;;;;35.92;18.65;;;;;;;-145.69;100.00;71482.00;5075964;28;20194;-76
2022/08/29 01:45:23;;;;;;;31.77;16.67;;;;;;;-145.69;100.00;71501.88;5075486;28;20229;-76
2022/08/29 01:47:50;;;;;;;29.05;16.42;;;;;;;-145.69;100.00;71513.81;5075881;28;20199;-76
2022/08/29 01:50:16;;;;;;;31.50;15.80;;;;;;;-145.69;100.00;71529.75;5076009;28;20203;-76
2022/08/29 01:52:43;;;;;;;35.85;17.67;;;;;;;-145.69;100.00;71529.75;5075606;28;20590;-75
2022/08/29 01:55:10;;;;;;;32.88;16.98;;;;;;;-145.69;100.00;71529.75;5075643;28;20214;-76
2022/08/29 01:57:37;;;;;;;31.95;16.33;;;;;;;-145.69;100.00;71541.69;5075848;28;20688;-76
2022/08/29 02:00:09;;;;;;;31.55;15.80;;;;;;;-145.69;100.00;71547.66;5075305;28;20256;-75
2022/08/29 02:02:37;;;;;;;65.10;24.02;;;;;;;-145.69;100.00;71480.00;5075868;28;20264;-76
2022/08/29 02:05:04;;;;;;;71.40;25.83;;;;;;;-145.69;100.00;71458.09;5075520;28;20252;-76
2022/08/29 02:07:30;;;;;;;43.75;20.85;;;;;;;-145.69;100.00;71482.00;5075624;28;20198;-76
2022/08/29 02:09:57;;;;;;;40.83;19.77;;;;;;;-145.69;100.00;71509.84;5075096;28;20202;-75
2022/08/29 02:12:25;;;;;;;32.72;16.92;;;;;;;-145.69;100.00;71525.78;5075120;28;20226;-75
2022/08/29 02:14:51;;;;;;;35.25;17.35;;;;;;;-145.69;100.00;71533.72;5067008;28;20207;-76
2022/08/29 02:17:19;;;;;;;35.90;17.17;;;;;;;-145.69;100.00;71537.72;5055178;28;20214;-75
2022/08/29 02:19:46;;;;;;;34.75;16.83;;;;;;;-145.69;100.00;71541.69;5055160;28;20234;-76
2022/08/29 02:22:13;;;;;;;44.42;19.13;;;;;;;-145.69;100.00;71525.78;5055325;28;20226;-75
2022/08/29 02:24:40;;;;;;;45.75;19.88;;;;;;;-145.69;100.00;71529.75;5055293;28;20774;-76
2022/08/29 02:27:06;;;;;;;41.53;19.52;;;;;;;-145.69;100.00;71545.66;5054309;28;20206;-75
2022/08/29 02:29:33;;;;;;;47.75;20.20;;;;;;;-145.69;100.00;71539.69;5055009;28;20214;-75
2022/08/29 02:31:59;;;;;;;56.30;21.23;;;;;;;-145.69;100.00;71521.78;5055064;28;20238;-75
2022/08/29 02:34:29;;;;;;;43.58;20.80;;;;;;;-145.69;100.00;71521.78;5054861;28;20306;-75
2022/08/29 02:36:57;;;;;;;49.35;21.23;;;;;;;-145.69;100.00;71529.75;5054577;28;20205;-75
2022/08/29 02:39:24;;;;;;;45.08;19.45;;;;;;;-145.69;100.00;71525.78;5054987;28;20280;-75
2022/08/29 02:41:51;;;;;;;64.05;21.73;;;;;;;-145.69;100.00;71505.88;5071291;28;20194;-75
2022/08/29 02:44:19;;;;;;;41.88;20.35;;;;;;;-145.69;100.00;71505.88;5074326;28;20191;-75
2022/08/29 02:46:45;;;;;;;37.42;17.10;;;;;;;-145.69;100.00;71521.78;5074778;28;20199;-75
2022/08/29 02:49:12;;;;;;;28.85;14.85;;;;;;;-145.69;100.00;71555.63;5074249;28;20234;-75
2022/08/29 02:51:40;;;;;;;29.50;14.73;;;;;;;-145.69;100.00;71577.50;5074402;28;20301;-75
2022/08/29 02:54:06;;;;;;;36.15;16.70;;;;;;;-145.69;100.00;71581.50;5074291;28;20199;-75
2022/08/29 02:56:33;;;;;;;29.58;15.50;;;;;;;-145.69;100.00;71577.50;5074758;28;20569;-77
2022/08/29 02:59:00;;;;;;;37.20;17.77;;;;;;;-145.69;100.00;71581.50;5074412;28;20675;-76
2022/08/29 03:01:27;;;;;;;39.88;19.38;;;;;;;-145.69;100.00;71565.56;5074534;28;20562;-76
2022/08/29 03:03:54;;;;;;;35.20;15.73;;;;;;;-145.69;100.00;71581.50;5073695;28;20202;-75
2022/08/29 03:06:21;;;;;;;38.28;17.42;;;;;;;-145.69;100.00;71587.47;5073961;28;20210;-75
2022/08/29 03:08:49;;;;;;;29.13;15.75;;;;;;;-145.69;100.00;71605.38;5074301;28;20195;-76
2022/08/29 03:11:16;;;;;;;37.33;15.90;;;;;;;-145.69;100.00;71613.31;5073668;28;20199;-76
2022/08/29 03:13:43;;;;;;;36.15;16.75;;;;;;;-145.69;100.00;71617.31;5073963;28;20227;-75
2022/08/29 03:16:10;;;;;;;28.38;15.13;;;;;;;-145.69;100.00;71631.25;5074111;28;20199;-75
2022/08/29 03:18:37;;;;;;;33.78;15.98;;;;;;;-145.69;100.00;71639.19;5074001;28;20203;-75
2022/08/29 03:21:04;;;;;;;39.80;17.65;;;;;;;-145.69;100.00;71637.19;5073332;28;20199;-77
2022/08/29 03:23:30;;;;;;;36.83;16.88;;;;;;;-145.69;100.00;71637.19;5073966;28;20211;-75
2022/08/29 03:25:58;;;;;;;35.25;19.10;;;;;;;-145.69;100.00;71641.19;5072646;28;20905;-77
2022/08/29 03:28:25;;;;;;;29.30;15.65;;;;;;;-145.69;100.00;71655.13;5073758;28;20543;-77
2022/08/29 03:30:51;;;;;;;44.45;19.42;;;;;;;-145.69;100.00;71629.25;5073599;28;20203;-77
2022/08/29 03:33:18;;;;;;;38.58;18.92;;;;;;;-145.69;100.00;71637.19;5073819;28;20227;-76
2022/08/29 03:35:44;;;;;;;43.30;19.37;;;;;;;-145.69;100.00;71625.25;5073727;28;20198;-76
2022/08/29 03:38:11;;;;;;;55.42;21.95;;;;;;;-145.69;100.00;71599.41;5073440;28;20205;-76
2022/08/29 03:40:41;;;;;;;51.92;21.02;;;;;;;-145.69;100.00;71593.44;5073251;28;20199;-75
2022/08/29 03:43:09;;;;;;;38.03;16.95;;;;;;;-145.69;100.00;71621.28;5073901;28;20225;-76
2022/08/29 03:45:35;;;;;;;29.85;15.40;;;;;;;-145.69;100.00;71637.19;5073266;28;20603;-77
2022/08/29 03:48:02;;;;;;;28.63;16.15;;;;;;;-145.69;100.00;71655.13;5072862;28;20238;-77
2022/08/29 03:50:29;;;;;;;38.92;17.45;;;;;;;-145.69;100.00;71659.09;5073790;28;20215;-76
2022/08/29 03:52:55;;;;;;;38.30;17.55;;;;;;;-145.69;100.00;71651.13;5073570;28;20585;-76
2022/08/29 03:55:22;;;;;;;40.45;18.52;;;;;;;-145.69;100.00;71655.13;5073430;28;20199;-76
2022/08/29 03:57:48;;;;;;;37.63;18.03;;;;;;;-145.69;100.00;71663.06;5073067;28;20195;-77
2022/08/29 04:00:18;;;;;;;45.78;19.80;;;;;;;-145.69;100.00;71671.03;5072892;28;20194;-76
2022/08/29 04:02:47;;;;;;;39.67;16.92;;;;;;;-145.69;100.00;71677.00;5073224;28;20195;-77
2022/08/29 04:05:14;;;;;;;36.88;17.95;;;;;;;-145.69;100.00;71679.00;5072889;28;20202;-76
2022/08/29 04:07:45;;;;;;;42.22;18.45;;;;;;;-145.69;100.00;71671.03;5073464;28;20206;-76
2022/08/29 04:10:14;;;;;;;42.03;19.42;;;;;;;-145.69;100.00;71669.03;5070787;28;20693;-76
2022/08/29 04:12:41;;;;;;;51.93;21.07;;;;;;;-145.69;100.00;71669.03;5072860;28;20230;-77
2022/08/29 04:15:09;;;;;;;48.05;20.77;;;;;;;-145.69;100.00;71657.09;5073029;28;20207;-77
2022/08/29 04:17:37;;;;;;;43.80;20.27;;;;;;;-145.69;100.00;71659.09;5073005;28;20207;-76
2022/08/29 04:20:06;;;;;;;42.30;19.10;;;;;;;-145.69;100.00;71663.06;5073039;28;20664;-76
2022/08/29 04:22:34;;;;;;;49.40;20.77;;;;;;;-145.69;100.00;71669.03;5072964;28;20657;-76
2022/08/29 04:25:01;;;;;;;45.37;20.67;;;;;;;-145.69;100.00;71673.03;5072821;28;20237;-76
2022/08/29 04:27:28;;;;;;;48.13;20.20;;;;;;;-145.69;100.00;71677.00;5073004;28;20202;-76
2022/08/29 04:29:54;;;;;;;50.08;20.27;;;;;;;-145.69;100.00;71680.97;5072766;28;20205;-76
2022/08/29 04:32:21;;;;;;;46.67;20.50;;;;;;;-145.69;100.00;71680.97;5072741;28;20203;-77
2022/08/29 04:34:49;;;;;;;49.88;21.95;;;;;;;-145.69;100.00;71675.00;5073047;28;20260;-76
2022/08/29 04:37:15;;;;;;;55.75;26.63;;;;;;;-145.69;100.00;71667.06;5072506;28;20441;-76
2022/08/29 04:39:42;;;;;;;50.20;22.00;;;;;;;-145.69;100.00;71663.06;5072592;28;20186;-76
2022/08/29 04:42:08;;;;;;;41.13;19.55;;;;;;;-145.69;100.00;71667.06;5072443;28;20203;-75
2022/08/29 04:44:35;;;;;;;47.92;19.13;;;;;;;-145.69;100.00;71663.06;5072659;28;20209;-75
2022/08/29 04:47:01;;;;;;;47.83;20.00;;;;;;;-145.69;100.00;71657.09;5072940;28;20562;-75
2022/08/29 04:49:28;;;;;;;36.50;17.70;;;;;;;-145.69;100.00;71657.09;5072599;28;20235;-76
2022/08/29 04:51:55;;;;;;;57.17;22.70;;;;;;;-145.69;100.00;71633.22;5072571;28;20209;-75
2022/08/29 04:54:22;;;;;;;58.83;24.17;;;;;;;-145.69;100.00;71627.25;5072607;28;20234;-77
2022/08/29 04:56:48;;;;;;;66.47;25.15;;;;;;;-145.69;100.00;71601.38;5072569;28;20201;-76
2022/08/29 04:59:15;;;;;;;63.60;24.13;;;;;;;-145.69;100.00;71595.41;5072226;28;20234;-76
2022/08/29 05:01:42;;;;;;;62.78;25.65;;;;;;;-145.69;100.00;71585.47;5072841;28;20210;-76
2022/08/29 05:04:09;;;;;;;50.47;24.25;;;;;;;-145.69;100.00;71609.34;5072183;28;20431;-76
2022/08/29 05:06:35;;;;;;;40.50;18.80;;;;;;;-145.69;100.00;71629.25;5072360;28;20199;-76
2022/08/29 05:09:03;;;;;;;37.35;18.17;;;;;;;-145.69;100.00;71645.16;5072066;28;20206;-76
2022/08/29 05:11:31;;;;;;;37.13;16.75;;;;;;;-145.69;100.00;71653.13;5072501;28;20203;-76
2022/08/29 05:13:59;;;;;;;32.55;17.48;;;;;;;-145.69;100.00;71655.13;5076752;28;20226;-77
2022/08/29 05:16:28;;;;;;;30.55;16.17;;;;;;;-145.69;100.00;71653.13;5076181;28;20673;-76
2022/08/29 05:18:55;;;;;;;37.15;18.17;;;;;;;-145.69;100.00;71653.13;5076530;28;20207;-76
2022/08/29 05:21:27;;;;;;;44.45;18.63;;;;;;;-145.69;100.00;71647.16;5076181;28;20199;-75
2022/08/29 05:23:55;;;;;;;44.25;19.60;;;;;;;-145.69;100.00;71639.19;5076249;28;20199;-75
2022/08/29 05:26:23;;;;;;;43.70;20.52;;;;;;;-145.69;100.00;71627.25;5076149;28;20731;-76
2022/08/29 05:28:50;;;;;;;46.47;20.63;;;;;;;-145.69;100.00;71625.25;5076319;28;20206;-76
2022/08/29 05:31:17;;;;;;;42.65;19.85;;;;;;;-145.69;100.00;71617.31;5076156;28;20208;-75
2022/08/29 05:33:44;;;;;;;42.17;20.77;;;;;;;-145.69;100.00;71609.34;5076244;28;20245;-75
2022/08/29 05:36:11;;;;;;;48.97;21.48;;;;;;;-145.69;100.00;71605.38;5075950;28;20397;-76
2022/08/29 05:38:37;;;;;;;50.95;20.95;;;;;;;-145.69;100.00;71597.41;5075680;28;20226;-76
2022/08/29 05:41:04;;;;;;;59.92;23.80;;;;;;;-145.69;100.00;71573.53;5076034;28;20209;-76
2022/08/29 05:43:33;;;;;;;47.42;21.30;;;;;;;-145.69;100.00;71581.50;5075875;28;20592;-75
2022/08/29 05:46:02;;;;;;;53.85;23.35;;;;;;;-145.69;100.00;71575.50;5075439;28;20285;-75
2022/08/29 05:48:29;;;;;;;57.00;24.98;;;;;;;-145.69;100.00;71563.56;5075780;28;20449;-76
2022/08/29 05:50:57;;;;;;;58.78;22.83;;;;;;;-145.69;100.00;71551.63;5075536;28;20199;-78
2022/08/29 05:53:23;;;;;;;54.88;21.75;;;;;;;-145.69;100.00;71547.66;5075468;28;20257;-76
2022/08/29 05:55:50;;;;;;;46.42;20.67;;;;;;;-145.69;100.00;71537.72;5075545;28;20209;-76
2022/08/29 05:58:17;;;;;;;44.08;19.25;;;;;;;-145.69;100.00;71545.66;5075862;28;20557;-76
2022/08/29 06:00:47;;;;;;;39.03;18.92;;;;;;;-145.69;100.00;71545.66;5075584;28;20202;-76
2022/08/29 06:03:14;;;;;;;37.53;18.42;;;;;;;-145.69;100.00;71541.69;5075445;28;20206;-76
2022/08/29 06:05:41;;;;;;;48.35;19.85;;;;;;;-145.69;100.00;71529.75;5074935;28;20190;-75
2022/08/29 06:08:08;;;;;;;57.05;23.75;;;;;;;-145.69;100.00;71521.78;5075394;28;20209;-76
2022/08/29 06:10:39;;;;;;;56.08;23.35;;;;;;;-145.69;100.00;71509.84;5075678;28;20533;-75
2022/08/29 06:13:05;;;;;;;65.05;26.63;;;;;;;-145.69;100.00;71503.88;5075201;28;20222;-75
2022/08/29 06:15:32;;;;;;;61.75;25.85;;;;;;;-145.69;100.00;71493.94;5075562;28;20207;-75
2022/08/29 06:18:00;;;;;;;59.53;25.45;;;;;;;-145.69;100.00;71480.00;5075319;28;20244;-76
2022/08/29 06:20:26;;;;;;;62.60;26.00;;;;;;;-145.69;100.00;71466.06;5068855;28;20199;-75
2022/08/29 06:22:53;;;;;;;58.67;26.00;;;;;;;-145.69;100.00;71456.13;5054735;28;20199;-76
2022/08/29 06:25:19;;;;;;;58.22;25.17;;;;;;;-145.69;100.00;71428.25;5055069;28;20593;-75
2022/08/29 06:27:46;;;;;;;58.40;25.95;;;;;;;-145.69;100.00;71412.34;5055036;28;20199;-76
2022/08/29 06:30:13;;;;;;;59.28;26.52;;;;;;;-145.69;100.00;71400.41;5055001;28;20211;-76
2022/08/29 06:32:39;;;;;;;66.53;27.83;;;;;;;-145.69;100.00;71382.50;5054992;28;20199;-75
2022/08/29 06:35:08;;;;;;;68.65;27.30;;;;;;;-145.69;100.00;71366.56;5059196;28;20249;-76
2022/08/29 06:37:34;;;;;;;63.72;26.33;;;;;;;-145.69;100.00;71362.59;5074902;28;20202;-76
2022/08/29 06:40:01;;;;;;;58.97;26.67;;;;;;;-145.69;100.00;71326.78;5075023;28;20206;-76
2022/08/29 06:42:27;;;;;;;61.95;27.10;;;;;;;-145.69;100.00;71324.78;5074767;28;20206;-75
2022/08/29 06:44:53;;;;;;;60.20;27.95;;;;;;;-145.69;100.00;71310.84;5074805;28;20199;-75
2022/08/29 06:47:20;;;;;;;58.15;25.95;;;;;;;-145.69;100.00;71294.94;5074726;28;20211;-76
2022/08/29 06:49:46;;;;;;;55.33;25.85;;;;;;;-145.69;100.00;71273.06;5074583;28;20238;-76
2022/08/29 06:52:14;;;;;;;51.65;25.23;;;;;;;-145.69;100.00;71271.06;5074940;28;20195;-75
2022/08/29 06:54:41;;;;;;;46.60;23.52;;;;;;;-145.69;100.00;71255.16;5074659;28;20230;-76
2022/08/29 06:57:07;;;;;;;44.63;21.85;;;;;;;-145.69;100.00;71243.22;5074713;28;20649;-75
2022/08/29 06:59:34;;;;;;;40.90;19.60;;;;;;;-145.69;100.00;71219.34;5074421;28;20436;-76
2022/08/29 07:02:00;;;;;;;30.98;18.17;;;;;;;-145.69;100.00;71219.34;5073695;28;20238;-76
2022/08/29 07:04:28;;;;;;;33.97;17.35;;;;;;;-145.69;100.00;71175.56;5074458;28;20557;-76
2022/08/29 07:06:54;;;;;;;25.73;15.65;;;;;;;-145.69;100.00;71155.66;5073924;28;20199;-77
2022/08/29 07:09:22;;;;;;;23.33;14.60;;;;;;;-145.69;100.00;71135.75;5074460;28;20670;-77
2022/08/29 07:11:49;;;;;;;22.35;12.73;;;;;;;-145.69;100.00;71135.75;5074343;28;20199;-77
2022/08/29 07:14:15;;;;;;;24.27;14.57;;;;;;;-145.69;100.00;71115.88;5074253;28;20250;-76
2022/08/29 07:16:42;;;;;;;19.73;12.57;;;;;;;-145.69;100.00;71103.94;5073911;28;20202;-76
2022/08/29 07:19:09;;;;;;;21.80;13.82;;;;;;;-145.69;100.00;71076.06;5074469;28;20222;-76
2022/08/29 07:21:36;;;;;;;19.33;12.20;;;;;;;-145.69;100.00;71054.19;5074446;28;20203;-76
2022/08/29 07:24:03;;;;;;;19.35;11.90;;;;;;;-145.69;100.00;71036.28;5073839;28;20282;-76
2022/08/29 07:26:35;;;;;;;15.82;10.20;;;;;;;-145.69;100.00;71026.31;5073874;28;20202;-76
2022/08/29 07:29:06;;;;;;;15.95;10.60;;;;;;;-145.69;100.00;71016.38;5073992;28;20205;-76
2022/08/29 07:31:33;;;;;;;16.08;9.75;;;;;;;-145.69;100.00;71002.44;5073732;28;20672;-75
2022/08/29 07:34:00;;;;;;;16.05;10.55;;;;;;;-145.69;100.00;70980.56;5073622;28;20234;-75
2022/08/29 07:36:26;;;;;;;15.15;10.40;;;;;;;-145.69;100.00;70976.59;5073427;28;20207;-76
2022/08/29 07:38:53;;;;;;;14.38;8.13;;;;;;;-145.69;100.00;70940.78;5073700;28;20557;-76
2022/08/29 07:41:19;;;;;;;14.73;8.88;;;;;;;-145.69;100.00;70926.84;5073762;28;20199;-76
2022/08/29 07:43:49;;;;;;;10.00;7.35;;;;;;;-145.69;100.00;70922.88;5073192;28;20209;-76
2022/08/29 07:46:17;;;;;;;11.30;7.07;;;;;;;-145.69;100.00;70897.00;5073280;28;20293;-76
2022/08/29 07:48:44;;;;;;;13.75;8.63;;;;;;;-145.69;100.00;70881.09;5073165;28;20688;-76
2022/08/29 07:51:13;;;;;;;14.27;8.80;;;;;;;-145.69;100.00;70873.13;5072949;28;20677;-77
2022/08/29 07:53:40;;;;;;;13.43;7.70;;;;;;;-145.69;100.00;70877.09;5073363;28;20222;-77
2022/08/29 07:56:08;;;;;;;10.60;7.00;;;;;;;-145.69;100.00;70861.19;5073386;28;20198;-75
2022/08/29 07:58:35;;;;;;;12.25;7.35;;;;;;;-145.69;100.00;70839.31;5073647;28;20199;-76
2022/08/29 08:01:03;;;;;;;10.60;6.35;;;;;;;-145.69;100.00;70821.41;5072802;28;20190;-76
2022/08/29 08:03:30;;;;;;;11.75;8.30;;;;;;;-145.69;100.00;70801.50;5073253;28;20552;-76
2022/08/29 08:05:56;;;;;;;13.35;8.18;;;;;;;-145.69;100.00;70777.63;5068514;28;20195;-76
2022/08/29 08:08:23;;;;;;;14.32;7.43;;;;;;;-145.69;100.00;70763.69;5053137;28;20196;-77
2022/08/29 08:10:50;;;;;;;9.85;6.80;;;;;;;-145.69;100.00;70761.72;5056751;28;20677;-75
2022/08/29 08:13:17;;;;;;;10.25;6.18;;;;;;;-145.69;100.00;70763.69;5053133;28;20570;-76
2022/08/29 08:15:44;;;;;;;13.98;6.00;;;;;;;-145.69;100.00;70769.66;5053130;28;20557;-76
2022/08/29 08:18:12;;;;;;;10.35;5.88;;;;;;;-145.69;100.00;70753.75;5052267;28;20207;-77
2022/08/29 08:20:38;;;;;;;7.63;5.30;;;;;;;-145.69;100.00;70753.75;5053169;28;20203;-76
2022/08/29 08:23:05;;;;;;;7.88;5.43;;;;;;;-145.69;100.00;70731.88;5055298;28;20562;-77
2022/08/29 08:25:32;;;;;;;10.32;5.68;;;;;;;-145.69;95.60;70743.81;5052987;28;20554;-74
2022/08/29 08:27:58;;;;;;;11.82;5.40;;;;;;;-145.69;97.53;70717.94;5052876;28;20669;-76
2022/08/29 08:30:25;;;;;;;10.10;5.40;;;;;;;-145.69;100.00;70709.97;5052918;28;20670;-76
2022/08/29 08:32:52;;;;;;;11.88;5.50;;;;;;;-145.69;99.72;70721.91;5062072;28;20202;-76
2022/08/29 08:35:20;;;;;;;8.50;4.93;;;;;;;-145.69;97.63;70700.03;5072418;28;20317;-76
2022/08/29 08:37:46;;;;;;;8.40;5.15;;;;;;;-145.69;94.96;70702.03;5072808;28;20256;-75
2022/08/29 08:40:19;;;;;;;12.77;5.10;;;;;;;-145.69;94.52;70680.13;5073094;28;20199;-75
2022/08/29 08:42:46;;;;;;;10.85;4.68;;;;;;;-145.69;94.49;70670.19;5072832;28;20234;-77
2022/08/29 08:45:16;;;;;;;7.18;4.72;;;;;;;-145.69;93.98;70650.28;5072920;28;20569;-75
2022/08/29 08:47:49;;;;;;;6.72;4.95;;;;;;;-145.69;89.95;70610.50;5072512;28;20209;-78
2022/08/29 08:50:24;;;;;;;7.63;4.80;;;;;;;-145.69;89.98;70598.56;5072170;28;20899;-75
2022/08/29 08:52:57;;;;;;;10.13;5.05;;;;;;;-145.69;90.02;70590.63;5072719;28;20289;-76
2022/08/29 08:55:39;;;;;;;7.97;4.63;;;;;;;-145.69;86.28;70580.66;5072863;28;20284;-76
2022/08/29 08:58:15;;;;;;;6.05;4.20;;;;;;;-145.69;82.18;70570.72;5072739;28;20198;-75
2022/08/29 09:00:45;;;;;;;9.02;4.43;;;;;;;-145.69;82.94;70554.81;5072322;28;20560;-76
2022/08/29 09:03:29;;;;;;;10.07;3.70;;;;;;;-145.69;81.63;70564.75;5072910;28;20245;-76
2022/08/29 09:06:09;;;;;;;8.63;4.22;;;;;;;-145.69;78.47;70570.72;5072655;28;20232;-75
2022/08/29 09:08:43;;;;;;;10.73;4.60;;;;;;;-145.69;83.19;70546.84;5072715;28;20294;-76
2022/08/29 09:11:19;;;;;;;6.07;4.32;;;;;;;-145.69;83.65;70519.00;5072614;28;20557;-76
2022/08/29 09:13:57;;;;;;;7.45;4.28;;;;;;;-145.69;78.63;70524.97;5072736;28;20206;-76
2022/08/29 09:16:30;;;;;;;8.07;4.70;;;;;;;-145.69;85.41;70481.19;5072538;28;20683;-77
2022/08/29 09:19:01;;;;;;;9.20;4.32;;;;;;;-145.69;82.30;70487.16;5072379;28;20535;-77
2022/08/29 09:21:37;;;;;;;9.20;4.40;;;;;;;-145.69;79.33;70503.06;5072478;28;20285;-76
2022/08/29 09:24:08;;;;;;;7.97;4.32;;;;;;;-145.69;76.69;70491.13;5072321;28;20195;-77
2022/08/29 09:26:35;;;;;;;6.50;4.28;;;;;;;-145.69;76.46;70515.00;5072420;28;20195;-77
2022/08/29 09:29:01;;;;;;;6.97;4.63;;;;;;;-145.69;78.54;70515.00;5072444;28;20661;-77
2022/08/29 09:31:30;;;;;;;7.95;5.70;;;;;;;-145.69;82.08;70534.91;5072368;28;20661;-75
2022/08/29 09:33:58;;;;;;;12.05;6.47;;;;;;;-145.69;88.70;70505.06;5072248;28;20249;-76
2022/08/29 09:36:40;;;;;;;12.45;6.35;;;;;;;-145.69;88.11;70487.16;5072531;28;20294;-76
2022/08/29 09:39:19;;;;;;;11.07;5.93;;;;;;;-145.69;84.60;70481.19;5072513;28;20620;-75
2022/08/29 09:41:49;;;;;;;9.05;6.32;;;;;;;-145.69;85.77;70489.16;5072184;28;20203;-76
2022/08/29 09:44:22;;;;;;;10.93;6.97;;;;;;;-145.69;85.21;70513.03;5072371;28;20661;-75
2022/08/29 09:47:05;;;;;;;9.45;5.82;;;;;;;-145.69;86.18;70522.97;5072206;28;20221;-76
2022/08/29 09:49:33;;;;;;;13.50;5.93;;;;;;;-145.69;85.46;70515.00;5071692;28;20635;-76
2022/08/29 09:52:10;;;;;;;10.73;6.28;;;;;;;-145.69;85.23;70513.03;5072283;28;20286;-76
2022/08/29 09:54:37;;;;;;;9.30;6.22;;;;;;;-145.69;88.07;70562.75;5072171;28;20222;-75
2022/08/29 09:57:11;;;;;;;9.80;5.15;;;;;;;-145.69;88.09;70544.84;5072090;28;20207;-75
2022/08/29 09:59:40;;;;;;;9.15;6.15;;;;;;;-145.69;88.20;70546.84;5073271;28;20563;-76
2022/08/29 10:02:21;;;;;;;10.73;5.57;;;;;;;-145.69;88.44;70542.88;5058453;28;20550;-76
2022/08/29 10:04:50;;;;;;;8.15;6.05;;;;;;;-145.69;85.81;70524.97;5075995;28;20297;-75
2022/08/29 10:07:20;;;;;;;8.15;5.78;;;;;;;-145.69;88.32;70511.03;5075274;28;20218;-76
2022/08/29 10:09:59;;;;;;;11.65;5.90;;;;;;;-145.69;85.52;70538.88;5075776;28;20210;-76
2022/08/29 10:12:35;;;;;;;13.18;6.22;;;;;;;-145.69;84.33;70519.00;5075599;28;20229;-76
2022/08/29 10:15:06;;;;;;;14.75;5.70;;;;;;;-145.69;83.64;70515.00;5075494;28;20222;-76
2022/08/29 10:20:27;;;;;;;7.88;4.95;;;;;;;-145.69;81.03;70475.22;5075551;28;20217;-75
2022/08/29 10:23:02;;;;;;;11.95;5.60;;;;;;;-145.69;79.63;70503.06;5075503;28;20209;-75
2022/08/29 10:25:35;;;;;;;9.15;5.22;;;;;;;-145.69;80.98;70463.28;5075468;28;20198;-76
2022/08/29 10:28:10;;;;;;;9.32;4.78;;;;;;;-145.69;81.13;70407.59;5072680;28;20195;-76
2022/08/29 10:30:43;;;;;;;7.32;4.63;;;;;;;-145.69;74.64;70425.50;5074986;28;20205;-76
2022/08/29 10:33:21;;;;;;;6.65;3.85;;;;;;;-145.69;74.54;70433.44;5075327;28;20588;-77
2022/08/29 10:35:55;;;;;;;14.55;4.38;;;;;;;-145.69;72.46;70443.41;5074742;28;20230;-76
2022/08/29 10:38:39;;;;;;;6.90;4.38;;;;;;;-145.69;73.71;70379.72;5074139;28;20901;-76
2022/08/29 10:41:17;;;;;;;6.35;4.13;;;;;;;-145.69;66.83;70326.03;5075285;28;20319;-76
2022/08/29 10:43:53;;;;;;;4.72;3.20;;;;;;;-145.69;64.83;70306.13;5074989;28;20205;-76
2022/08/29 10:46:46;;;;;;;7.05;3.90;;;;;;;-145.69;65.20;70324.03;5075041;28;20202;-76
2022/08/29 10:49:24;;;;;;;7.63;3.53;;;;;;;-145.69;64.21;70343.94;5074930;28;20230;-75
2022/08/29 10:51:58;;;;;;;4.40;3.42;;;;;;;-145.69;67.39;70308.13;5074972;28;20202;-75
2022/08/29 10:54:33;;;;;;;6.60;3.60;;;;;;;-145.69;67.42;70292.19;5074702;28;20680;-75
2022/08/29 10:57:01;;;;;;;7.53;3.25;;;;;;;-145.69;62.60;70240.47;5074910;28;20198;-75
2022/08/29 10:59:41;;;;;;;5.13;3.38;;;;;;;-145.69;63.36;70246.44;5074286;28;20187;-75
2022/08/29 11:02:17;;;;;;;6.53;2.97;;;;;;;-145.69;61.14;70228.53;5074371;28;20195;-75
2022/08/29 11:04:50;;;;;;;8.90;3.75;;;;;;;-145.69;63.61;70274.31;5074228;28;20206;-75
2022/08/29 11:07:25;;;;;;;5.45;3.78;;;;;;;-145.69;57.57;70250.44;5074459;28;20209;-75
2022/08/29 11:09:57;;;;;;;3.97;2.90;;;;;;;-145.69;57.24;70242.47;5073985;28;20203;-76